sensor_id;sensor_type;location;lat;lon;timestamp;P1;durP1;ratioP1;P2;durP2;ratioP2
5841;SDS011;2947;52.276;9.946;2023-08-12T00:01:10;11.35;;;4.03;;
5841;SDS011;2947;52.276;9.946;2023-08-12T00:03:36;20.48;;;4.25;;
5841;SDS011;2947;52.276;9.946;2023-08-12T00:06:02;12.48;;;4.07;;
5841;SDS011;2947;52.276;9.946;2023-08-12T00:08:30;13.55;;;4.88;;
5841;SDS011;2947;52.276;9.946;2023-08-12T00:10:56;13.77;;;4.60;;
5841;SDS011;2947;52.276;9.946;2023-08-12T00:13:22;15.75;;;4.30;;
5841;SDS011;2947;52.276;9.946;2023-08-12T00:15:47;13.75;;;4.75;;
5841;SDS011;2947;52.276;9.946;2023-08-12T00:18:13;8.55;;;4.68;;
5841;SDS011;2947;52.276;9.946;2023-08-12T00:20:39;7.57;;;4.03;;
5841;SDS011;2947;52.276;9.946;2023-08-12T00:23:05;17.42;;;4.00;;
5841;SDS011;2947;52.276;9.946;2023-08-12T00:25:30;21.20;;;4.00;;
5841;SDS011;2947;52.276;9.946;2023-08-12T00:27:56;11.48;;;4.20;;
5841;SDS011;2947;52.276;9.946;2023-08-12T00:30:22;13.45;;;4.95;;
5841;SDS011;2947;52.276;9.946;2023-08-12T00:32:47;6.18;;;3.83;;
5841;SDS011;2947;52.276;9.946;2023-08-12T00:35:13;8.57;;;4.57;;
5841;SDS011;2947;52.276;9.946;2023-08-12T00:37:39;8.38;;;3.92;;
5841;SDS011;2947;52.276;9.946;2023-08-12T00:40:04;18.85;;;4.40;;
5841;SDS011;2947;52.276;9.946;2023-08-12T00:42:31;11.32;;;5.82;;
5841;SDS011;2947;52.276;9.946;2023-08-12T00:44:57;14.63;;;4.10;;
5841;SDS011;2947;52.276;9.946;2023-08-12T00:47:23;11.68;;;4.10;;
5841;SDS011;2947;52.276;9.946;2023-08-12T00:49:50;13.77;;;4.38;;
5841;SDS011;2947;52.276;9.946;2023-08-12T00:52:16;14.38;;;4.40;;
5841;SDS011;2947;52.276;9.946;2023-08-12T00:54:44;8.63;;;4.25;;
5841;SDS011;2947;52.276;9.946;2023-08-12T00:57:10;17.52;;;4.57;;
5841;SDS011;2947;52.276;9.946;2023-08-12T00:59:36;11.88;;;4.05;;
5841;SDS011;2947;52.276;9.946;2023-08-12T01:02:02;10.10;;;4.43;;
5841;SDS011;2947;52.276;9.946;2023-08-12T01:04:29;15.85;;;5.28;;
5841;SDS011;2947;52.276;9.946;2023-08-12T01:06:55;24.15;;;4.32;;
5841;SDS011;2947;52.276;9.946;2023-08-12T01:09:20;11.93;;;3.85;;
5841;SDS011;2947;52.276;9.946;2023-08-12T01:17:22;11.48;;;4.18;;
5841;SDS011;2947;52.276;9.946;2023-08-12T01:19:48;10.50;;;3.92;;
5841;SDS011;2947;52.276;9.946;2023-08-12T01:22:15;6.63;;;3.92;;
5841;SDS011;2947;52.276;9.946;2023-08-12T01:24:45;9.82;;;4.18;;
5841;SDS011;2947;52.276;9.946;2023-08-12T01:27:12;16.13;;;3.78;;
5841;SDS011;2947;52.276;9.946;2023-08-12T01:29:42;8.73;;;4.25;;
5841;SDS011;2947;52.276;9.946;2023-08-12T01:35:05;8.07;;;3.85;;
5841;SDS011;2947;52.276;9.946;2023-08-12T01:37:42;17.88;;;3.88;;
5841;SDS011;2947;52.276;9.946;2023-08-12T01:40:08;18.85;;;3.95;;
5841;SDS011;2947;52.276;9.946;2023-08-12T01:42:35;10.68;;;3.53;;
5841;SDS011;2947;52.276;9.946;2023-08-12T01:45:04;13.38;;;3.88;;
5841;SDS011;2947;52.276;9.946;2023-08-12T01:47:30;17.48;;;4.18;;
5841;SDS011;2947;52.276;9.946;2023-08-12T01:49:57;8.88;;;3.83;;
5841;SDS011;2947;52.276;9.946;2023-08-12T01:52:23;9.18;;;3.70;;
5841;SDS011;2947;52.276;9.946;2023-08-12T01:54:49;14.75;;;4.35;;
5841;SDS011;2947;52.276;9.946;2023-08-12T01:57:15;11.80;;;4.63;;
5841;SDS011;2947;52.276;9.946;2023-08-12T01:59:41;14.43;;;4.03;;
5841;SDS011;2947;52.276;9.946;2023-08-12T02:02:08;10.82;;;4.03;;
5841;SDS011;2947;52.276;9.946;2023-08-12T02:04:34;13.88;;;4.10;;
5841;SDS011;2947;52.276;9.946;2023-08-12T02:07:02;12.10;;;5.28;;
5841;SDS011;2947;52.276;9.946;2023-08-12T02:09:28;9.60;;;4.70;;
5841;SDS011;2947;52.276;9.946;2023-08-12T02:11:55;7.25;;;3.75;;
5841;SDS011;2947;52.276;9.946;2023-08-12T02:14:21;12.85;;;4.97;;
5841;SDS011;2947;52.276;9.946;2023-08-12T02:16:47;11.38;;;4.70;;
5841;SDS011;2947;52.276;9.946;2023-08-12T02:19:12;9.55;;;4.35;;
5841;SDS011;2947;52.276;9.946;2023-08-12T02:21:38;6.93;;;4.43;;
5841;SDS011;2947;52.276;9.946;2023-08-12T02:24:04;8.85;;;4.80;;
5841;SDS011;2947;52.276;9.946;2023-08-12T02:26:30;8.43;;;4.22;;
5841;SDS011;2947;52.276;9.946;2023-08-12T02:28:56;8.45;;;4.55;;
5841;SDS011;2947;52.276;9.946;2023-08-12T02:31:21;9.80;;;4.40;;
5841;SDS011;2947;52.276;9.946;2023-08-12T02:33:47;6.82;;;3.53;;
5841;SDS011;2947;52.276;9.946;2023-08-12T02:36:14;9.32;;;4.00;;
5841;SDS011;2947;52.276;9.946;2023-08-12T02:38:40;8.73;;;3.58;;
5841;SDS011;2947;52.276;9.946;2023-08-12T02:41:06;10.63;;;3.75;;
5841;SDS011;2947;52.276;9.946;2023-08-12T02:43:31;10.88;;;4.25;;
5841;SDS011;2947;52.276;9.946;2023-08-12T02:45:57;5.97;;;3.53;;
5841;SDS011;2947;52.276;9.946;2023-08-12T02:48:23;13.80;;;5.00;;
5841;SDS011;2947;52.276;9.946;2023-08-12T02:50:48;15.55;;;4.45;;
5841;SDS011;2947;52.276;9.946;2023-08-12T02:53:15;9.85;;;3.40;;
5841;SDS011;2947;52.276;9.946;2023-08-12T02:55:41;8.48;;;3.78;;
5841;SDS011;2947;52.276;9.946;2023-08-12T02:58:07;6.75;;;4.07;;
5841;SDS011;2947;52.276;9.946;2023-08-12T03:00:32;6.43;;;3.20;;
5841;SDS011;2947;52.276;9.946;2023-08-12T03:02:58;9.38;;;3.80;;
5841;SDS011;2947;52.276;9.946;2023-08-12T03:05:24;6.75;;;3.78;;
5841;SDS011;2947;52.276;9.946;2023-08-12T03:07:50;10.90;;;3.55;;
5841;SDS011;2947;52.276;9.946;2023-08-12T03:10:17;10.55;;;4.35;;
5841;SDS011;2947;52.276;9.946;2023-08-12T03:12:43;6.65;;;3.67;;
5841;SDS011;2947;52.276;9.946;2023-08-12T03:15:09;8.57;;;3.90;;
5841;SDS011;2947;52.276;9.946;2023-08-12T03:17:36;9.43;;;3.70;;
5841;SDS011;2947;52.276;9.946;2023-08-12T03:20:03;7.53;;;3.55;;
5841;SDS011;2947;52.276;9.946;2023-08-12T03:22:33;9.10;;;3.60;;
5841;SDS011;2947;52.276;9.946;2023-08-12T03:25:01;6.75;;;3.20;;
5841;SDS011;2947;52.276;9.946;2023-08-12T03:27:27;6.78;;;3.00;;
5841;SDS011;2947;52.276;9.946;2023-08-12T03:29:53;9.52;;;3.28;;
5841;SDS011;2947;52.276;9.946;2023-08-12T03:32:19;8.45;;;3.20;;
5841;SDS011;2947;52.276;9.946;2023-08-12T03:34:44;6.28;;;3.08;;
5841;SDS011;2947;52.276;9.946;2023-08-12T03:37:10;8.73;;;3.63;;
5841;SDS011;2947;52.276;9.946;2023-08-12T03:39:39;11.02;;;3.58;;
5841;SDS011;2947;52.276;9.946;2023-08-12T03:42:05;14.82;;;3.55;;
5841;SDS011;2947;52.276;9.946;2023-08-12T03:44:30;5.43;;;3.20;;
5841;SDS011;2947;52.276;9.946;2023-08-12T03:46:56;5.93;;;3.47;;
5841;SDS011;2947;52.276;9.946;2023-08-12T03:49:22;9.45;;;3.05;;
5841;SDS011;2947;52.276;9.946;2023-08-12T03:51:47;9.85;;;3.78;;
5841;SDS011;2947;52.276;9.946;2023-08-12T03:54:13;9.80;;;3.40;;
5841;SDS011;2947;52.276;9.946;2023-08-12T03:56:39;6.70;;;3.83;;
5841;SDS011;2947;52.276;9.946;2023-08-12T03:59:04;8.43;;;3.22;;
5841;SDS011;2947;52.276;9.946;2023-08-12T04:01:30;6.32;;;3.00;;
5841;SDS011;2947;52.276;9.946;2023-08-12T04:03:56;5.47;;;3.20;;
5841;SDS011;2947;52.276;9.946;2023-08-12T04:06:21;10.05;;;4.30;;
5841;SDS011;2947;52.276;9.946;2023-08-12T04:08:47;5.22;;;2.63;;
5841;SDS011;2947;52.276;9.946;2023-08-12T04:11:13;7.60;;;3.72;;
5841;SDS011;2947;52.276;9.946;2023-08-12T04:13:38;7.40;;;3.75;;
5841;SDS011;2947;52.276;9.946;2023-08-12T04:16:04;6.10;;;3.70;;
5841;SDS011;2947;52.276;9.946;2023-08-12T04:18:30;8.02;;;3.50;;
5841;SDS011;2947;52.276;9.946;2023-08-12T04:20:56;8.82;;;3.92;;
5841;SDS011;2947;52.276;9.946;2023-08-12T04:23:21;13.02;;;4.68;;
5841;SDS011;2947;52.276;9.946;2023-08-12T04:25:47;12.55;;;5.00;;
5841;SDS011;2947;52.276;9.946;2023-08-12T04:28:13;7.57;;;3.90;;
5841;SDS011;2947;52.276;9.946;2023-08-12T04:30:44;9.93;;;4.10;;
5841;SDS011;2947;52.276;9.946;2023-08-12T04:33:12;9.00;;;4.88;;
5841;SDS011;2947;52.276;9.946;2023-08-12T04:35:39;10.10;;;4.60;;
5841;SDS011;2947;52.276;9.946;2023-08-12T04:38:06;16.75;;;5.05;;
5841;SDS011;2947;52.276;9.946;2023-08-12T04:40:32;7.78;;;4.78;;
5841;SDS011;2947;52.276;9.946;2023-08-12T04:42:58;7.10;;;4.80;;
5841;SDS011;2947;52.276;9.946;2023-08-12T04:45:24;9.00;;;5.10;;
5841;SDS011;2947;52.276;9.946;2023-08-12T04:47:50;9.13;;;4.80;;
5841;SDS011;2947;52.276;9.946;2023-08-12T04:50:16;10.02;;;4.95;;
5841;SDS011;2947;52.276;9.946;2023-08-12T04:52:42;8.18;;;5.13;;
5841;SDS011;2947;52.276;9.946;2023-08-12T04:55:07;10.35;;;6.10;;
5841;SDS011;2947;52.276;9.946;2023-08-12T04:57:35;7.47;;;4.90;;
5841;SDS011;2947;52.276;9.946;2023-08-12T05:00:01;15.52;;;7.30;;
5841;SDS011;2947;52.276;9.946;2023-08-12T05:02:28;11.45;;;6.20;;
5841;SDS011;2947;52.276;9.946;2023-08-12T05:04:54;11.73;;;6.30;;
5841;SDS011;2947;52.276;9.946;2023-08-12T05:07:19;10.68;;;5.63;;
5841;SDS011;2947;52.276;9.946;2023-08-12T05:09:45;9.50;;;6.13;;
5841;SDS011;2947;52.276;9.946;2023-08-12T05:12:11;19.60;;;7.32;;
5841;SDS011;2947;52.276;9.946;2023-08-12T05:14:38;8.85;;;5.63;;
5841;SDS011;2947;52.276;9.946;2023-08-12T05:17:04;10.85;;;6.25;;
5841;SDS011;2947;52.276;9.946;2023-08-12T05:19:30;10.02;;;6.50;;
5841;SDS011;2947;52.276;9.946;2023-08-12T05:21:56;8.63;;;6.72;;
5841;SDS011;2947;52.276;9.946;2023-08-12T05:24:22;12.98;;;6.57;;
5841;SDS011;2947;52.276;9.946;2023-08-12T05:26:47;15.57;;;6.95;;
5841;SDS011;2947;52.276;9.946;2023-08-12T05:29:13;9.77;;;7.03;;
5841;SDS011;2947;52.276;9.946;2023-08-12T05:31:39;11.50;;;6.95;;
5841;SDS011;2947;52.276;9.946;2023-08-12T05:34:05;14.30;;;8.05;;
5841;SDS011;2947;52.276;9.946;2023-08-12T05:36:30;17.02;;;6.90;;
5841;SDS011;2947;52.276;9.946;2023-08-12T05:38:56;11.50;;;7.30;;
5841;SDS011;2947;52.276;9.946;2023-08-12T05:41:23;13.35;;;7.72;;
5841;SDS011;2947;52.276;9.946;2023-08-12T05:43:49;12.43;;;6.28;;
5841;SDS011;2947;52.276;9.946;2023-08-12T05:46:15;11.38;;;6.32;;
5841;SDS011;2947;52.276;9.946;2023-08-12T05:48:40;7.47;;;5.45;;
5841;SDS011;2947;52.276;9.946;2023-08-12T05:51:06;11.10;;;5.00;;
5841;SDS011;2947;52.276;9.946;2023-08-12T05:53:32;10.13;;;5.78;;
5841;SDS011;2947;52.276;9.946;2023-08-12T05:55:58;12.65;;;5.55;;
5841;SDS011;2947;52.276;9.946;2023-08-12T05:58:24;8.52;;;5.35;;
5841;SDS011;2947;52.276;9.946;2023-08-12T06:00:50;9.70;;;5.03;;
5841;SDS011;2947;52.276;9.946;2023-08-12T06:03:16;8.68;;;5.35;;
5841;SDS011;2947;52.276;9.946;2023-08-12T06:05:43;9.00;;;5.03;;
5841;SDS011;2947;52.276;9.946;2023-08-12T06:08:11;10.10;;;5.05;;
5841;SDS011;2947;52.276;9.946;2023-08-12T06:10:37;8.75;;;5.72;;
5841;SDS011;2947;52.276;9.946;2023-08-12T06:13:05;7.72;;;4.75;;
5841;SDS011;2947;52.276;9.946;2023-08-12T06:15:34;7.85;;;4.90;;
5841;SDS011;2947;52.276;9.946;2023-08-12T06:18:00;7.55;;;5.03;;
5841;SDS011;2947;52.276;9.946;2023-08-12T06:20:26;9.00;;;5.35;;
5841;SDS011;2947;52.276;9.946;2023-08-12T06:22:52;7.43;;;5.57;;
5841;SDS011;2947;52.276;9.946;2023-08-12T06:25:18;17.33;;;7.80;;
5841;SDS011;2947;52.276;9.946;2023-08-12T06:27:45;15.52;;;5.90;;
5841;SDS011;2947;52.276;9.946;2023-08-12T06:30:12;8.85;;;5.55;;
5841;SDS011;2947;52.276;9.946;2023-08-12T06:32:39;8.55;;;5.40;;
5841;SDS011;2947;52.276;9.946;2023-08-12T06:35:05;8.18;;;5.45;;
5841;SDS011;2947;52.276;9.946;2023-08-12T06:37:31;8.48;;;5.22;;
5841;SDS011;2947;52.276;9.946;2023-08-12T06:39:57;10.43;;;5.63;;
5841;SDS011;2947;52.276;9.946;2023-08-12T06:42:23;10.30;;;5.38;;
5841;SDS011;2947;52.276;9.946;2023-08-12T06:44:58;8.23;;;5.68;;
5841;SDS011;2947;52.276;9.946;2023-08-12T06:47:25;10.57;;;6.70;;
5841;SDS011;2947;52.276;9.946;2023-08-12T06:49:52;10.73;;;5.80;;
5841;SDS011;2947;52.276;9.946;2023-08-12T06:52:18;8.38;;;5.80;;
5841;SDS011;2947;52.276;9.946;2023-08-12T06:54:44;8.27;;;4.95;;
5841;SDS011;2947;52.276;9.946;2023-08-12T06:57:10;15.07;;;5.07;;
5841;SDS011;2947;52.276;9.946;2023-08-12T06:59:36;6.30;;;4.60;;
5841;SDS011;2947;52.276;9.946;2023-08-12T07:02:03;13.30;;;4.95;;
5841;SDS011;2947;52.276;9.946;2023-08-12T07:04:29;7.15;;;4.70;;
5841;SDS011;2947;52.276;9.946;2023-08-12T07:06:55;9.05;;;6.30;;
5841;SDS011;2947;52.276;9.946;2023-08-12T07:09:21;7.15;;;4.60;;
5841;SDS011;2947;52.276;9.946;2023-08-12T07:11:46;6.88;;;4.85;;
5841;SDS011;2947;52.276;9.946;2023-08-12T07:14:12;9.07;;;4.50;;
5841;SDS011;2947;52.276;9.946;2023-08-12T07:16:38;8.85;;;4.93;;
5841;SDS011;2947;52.276;9.946;2023-08-12T07:19:03;9.55;;;5.68;;
5841;SDS011;2947;52.276;9.946;2023-08-12T07:21:29;9.80;;;5.50;;
5841;SDS011;2947;52.276;9.946;2023-08-12T07:23:55;9.20;;;4.95;;
5841;SDS011;2947;52.276;9.946;2023-08-12T07:26:21;8.35;;;4.70;;
5841;SDS011;2947;52.276;9.946;2023-08-12T07:28:46;10.93;;;4.95;;
5841;SDS011;2947;52.276;9.946;2023-08-12T07:31:13;7.70;;;5.05;;
5841;SDS011;2947;52.276;9.946;2023-08-12T07:33:38;7.40;;;5.03;;
5841;SDS011;2947;52.276;9.946;2023-08-12T07:36:04;6.32;;;4.80;;
5841;SDS011;2947;52.276;9.946;2023-08-12T07:38:30;8.70;;;5.22;;
5841;SDS011;2947;52.276;9.946;2023-08-12T07:40:56;8.77;;;4.97;;
5841;SDS011;2947;52.276;9.946;2023-08-12T07:43:22;6.50;;;4.90;;
5841;SDS011;2947;52.276;9.946;2023-08-12T07:45:51;6.68;;;4.50;;
5841;SDS011;2947;52.276;9.946;2023-08-12T07:48:18;8.90;;;4.90;;
5841;SDS011;2947;52.276;9.946;2023-08-12T07:50:45;9.27;;;4.50;;
5841;SDS011;2947;52.276;9.946;2023-08-12T07:53:13;7.47;;;5.13;;
5841;SDS011;2947;52.276;9.946;2023-08-12T07:55:40;11.02;;;5.18;;
5841;SDS011;2947;52.276;9.946;2023-08-12T07:58:07;6.43;;;4.53;;
5841;SDS011;2947;52.276;9.946;2023-08-12T08:00:33;8.48;;;5.13;;
5841;SDS011;2947;52.276;9.946;2023-08-12T08:02:59;10.02;;;5.30;;
5841;SDS011;2947;52.276;9.946;2023-08-12T08:05:24;8.38;;;4.82;;
5841;SDS011;2947;52.276;9.946;2023-08-12T08:07:50;7.97;;;4.53;;
5841;SDS011;2947;52.276;9.946;2023-08-12T08:10:16;10.70;;;5.43;;
5841;SDS011;2947;52.276;9.946;2023-08-12T08:12:41;7.88;;;5.50;;
5841;SDS011;2947;52.276;9.946;2023-08-12T08:15:07;12.32;;;6.00;;
5841;SDS011;2947;52.276;9.946;2023-08-12T08:17:34;10.43;;;5.47;;
5841;SDS011;2947;52.276;9.946;2023-08-12T08:19:59;10.77;;;5.68;;
5841;SDS011;2947;52.276;9.946;2023-08-12T08:22:25;7.88;;;4.80;;
5841;SDS011;2947;52.276;9.946;2023-08-12T08:24:50;20.92;;;5.95;;
5841;SDS011;2947;52.276;9.946;2023-08-12T08:27:16;7.03;;;4.78;;
5841;SDS011;2947;52.276;9.946;2023-08-12T08:29:42;7.53;;;4.60;;
5841;SDS011;2947;52.276;9.946;2023-08-12T08:32:08;8.90;;;5.30;;
5841;SDS011;2947;52.276;9.946;2023-08-12T08:34:33;19.77;;;6.70;;
5841;SDS011;2947;52.276;9.946;2023-08-12T08:36:59;11.88;;;6.13;;
5841;SDS011;2947;52.276;9.946;2023-08-12T08:39:25;8.10;;;5.20;;
5841;SDS011;2947;52.276;9.946;2023-08-12T08:41:51;7.97;;;5.38;;
5841;SDS011;2947;52.276;9.946;2023-08-12T08:44:19;7.05;;;4.80;;
5841;SDS011;2947;52.276;9.946;2023-08-12T08:46:49;9.05;;;5.05;;
5841;SDS011;2947;52.276;9.946;2023-08-12T08:49:17;6.70;;;4.88;;
5841;SDS011;2947;52.276;9.946;2023-08-12T08:51:45;10.80;;;5.25;;
5841;SDS011;2947;52.276;9.946;2023-08-12T08:54:12;12.15;;;5.63;;
5841;SDS011;2947;52.276;9.946;2023-08-12T08:56:39;8.25;;;4.55;;
5841;SDS011;2947;52.276;9.946;2023-08-12T08:59:05;14.18;;;5.40;;
5841;SDS011;2947;52.276;9.946;2023-08-12T09:01:30;8.93;;;4.85;;
5841;SDS011;2947;52.276;9.946;2023-08-12T09:03:57;14.60;;;5.85;;
5841;SDS011;2947;52.276;9.946;2023-08-12T09:06:26;9.07;;;5.70;;
5841;SDS011;2947;52.276;9.946;2023-08-12T09:08:54;7.32;;;5.20;;
5841;SDS011;2947;52.276;9.946;2023-08-12T09:11:20;8.98;;;5.10;;
5841;SDS011;2947;52.276;9.946;2023-08-12T09:13:46;9.68;;;5.47;;
5841;SDS011;2947;52.276;9.946;2023-08-12T09:16:13;8.90;;;5.68;;
5841;SDS011;2947;52.276;9.946;2023-08-12T09:18:40;9.13;;;5.72;;
5841;SDS011;2947;52.276;9.946;2023-08-12T09:21:09;8.32;;;5.35;;
5841;SDS011;2947;52.276;9.946;2023-08-12T09:23:37;11.38;;;5.20;;
5841;SDS011;2947;52.276;9.946;2023-08-12T09:26:13;9.25;;;5.78;;
5841;SDS011;2947;52.276;9.946;2023-08-12T09:28:41;11.60;;;5.38;;
5841;SDS011;2947;52.276;9.946;2023-08-12T09:31:08;8.15;;;5.57;;
5841;SDS011;2947;52.276;9.946;2023-08-12T09:33:47;7.90;;;5.65;;
5841;SDS011;2947;52.276;9.946;2023-08-12T09:36:12;14.82;;;6.32;;
5841;SDS011;2947;52.276;9.946;2023-08-12T09:38:38;12.32;;;6.30;;
5841;SDS011;2947;52.276;9.946;2023-08-12T09:41:04;10.55;;;5.47;;
5841;SDS011;2947;52.276;9.946;2023-08-12T09:43:30;13.60;;;6.75;;
5841;SDS011;2947;52.276;9.946;2023-08-12T09:45:57;10.38;;;4.90;;
5841;SDS011;2947;52.276;9.946;2023-08-12T09:48:24;9.65;;;5.50;;
5841;SDS011;2947;52.276;9.946;2023-08-12T09:50:51;11.63;;;6.28;;
5841;SDS011;2947;52.276;9.946;2023-08-12T09:53:19;8.52;;;6.07;;
5841;SDS011;2947;52.276;9.946;2023-08-12T09:55:47;10.63;;;5.70;;
5841;SDS011;2947;52.276;9.946;2023-08-12T09:58:16;8.52;;;5.20;;
5841;SDS011;2947;52.276;9.946;2023-08-12T10:00:44;7.22;;;5.25;;
5841;SDS011;2947;52.276;9.946;2023-08-12T10:03:11;11.68;;;4.88;;
5841;SDS011;2947;52.276;9.946;2023-08-12T10:05:42;12.10;;;4.82;;
5841;SDS011;2947;52.276;9.946;2023-08-12T10:08:08;8.15;;;4.95;;
5841;SDS011;2947;52.276;9.946;2023-08-12T10:10:37;6.82;;;4.20;;
5841;SDS011;2947;52.276;9.946;2023-08-12T10:13:04;7.35;;;4.50;;
5841;SDS011;2947;52.276;9.946;2023-08-12T10:15:32;10.20;;;4.90;;
5841;SDS011;2947;52.276;9.946;2023-08-12T10:17:59;9.90;;;4.57;;
5841;SDS011;2947;52.276;9.946;2023-08-12T10:20:25;10.30;;;4.78;;
5841;SDS011;2947;52.276;9.946;2023-08-12T10:22:52;6.53;;;4.80;;
5841;SDS011;2947;52.276;9.946;2023-08-12T10:25:20;6.93;;;4.53;;
5841;SDS011;2947;52.276;9.946;2023-08-12T10:27:49;7.47;;;5.18;;
5841;SDS011;2947;52.276;9.946;2023-08-12T10:30:15;10.60;;;5.03;;
5841;SDS011;2947;52.276;9.946;2023-08-12T10:32:41;11.68;;;5.45;;
5841;SDS011;2947;52.276;9.946;2023-08-12T10:35:08;8.35;;;5.18;;
5841;SDS011;2947;52.276;9.946;2023-08-12T10:37:34;9.38;;;4.95;;
5841;SDS011;2947;52.276;9.946;2023-08-12T10:40:04;9.48;;;5.10;;
5841;SDS011;2947;52.276;9.946;2023-08-12T10:42:40;8.30;;;4.93;;
5841;SDS011;2947;52.276;9.946;2023-08-12T10:45:10;9.10;;;5.10;;
5841;SDS011;2947;52.276;9.946;2023-08-12T10:47:41;11.35;;;5.18;;
5841;SDS011;2947;52.276;9.946;2023-08-12T10:50:22;10.23;;;6.20;;
5841;SDS011;2947;52.276;9.946;2023-08-12T10:52:51;12.00;;;5.70;;
5841;SDS011;2947;52.276;9.946;2023-08-12T10:55:25;10.25;;;6.05;;
5841;SDS011;2947;52.276;9.946;2023-08-12T10:57:53;33.50;;;5.95;;
5841;SDS011;2947;52.276;9.946;2023-08-12T11:00:23;10.82;;;5.65;;
5841;SDS011;2947;52.276;9.946;2023-08-12T11:02:55;10.05;;;4.97;;
5841;SDS011;2947;52.276;9.946;2023-08-12T11:05:22;8.50;;;5.30;;
5841;SDS011;2947;52.276;9.946;2023-08-12T11:07:56;9.82;;;5.47;;
5841;SDS011;2947;52.276;9.946;2023-08-12T11:10:27;11.48;;;6.22;;
5841;SDS011;2947;52.276;9.946;2023-08-12T11:12:56;10.25;;;5.38;;
5841;SDS011;2947;52.276;9.946;2023-08-12T11:15:36;8.80;;;5.22;;
5841;SDS011;2947;52.276;9.946;2023-08-12T11:18:07;5.47;;;3.53;;
5841;SDS011;2947;52.276;9.946;2023-08-12T11:20:35;5.70;;;4.00;;
5841;SDS011;2947;52.276;9.946;2023-08-12T11:23:02;10.80;;;3.90;;
5841;SDS011;2947;52.276;9.946;2023-08-12T11:25:30;4.82;;;2.95;;
5841;SDS011;2947;52.276;9.946;2023-08-12T11:27:58;5.28;;;3.83;;
5841;SDS011;2947;52.276;9.946;2023-08-12T11:30:24;5.15;;;3.45;;
5841;SDS011;2947;52.276;9.946;2023-08-12T11:32:51;6.05;;;3.78;;
5841;SDS011;2947;52.276;9.946;2023-08-12T11:35:19;5.20;;;3.30;;
5841;SDS011;2947;52.276;9.946;2023-08-12T11:37:48;7.20;;;3.92;;
5841;SDS011;2947;52.276;9.946;2023-08-12T11:40:18;6.13;;;4.28;;
5841;SDS011;2947;52.276;9.946;2023-08-12T11:42:45;6.60;;;3.35;;
5841;SDS011;2947;52.276;9.946;2023-08-12T11:45:13;7.07;;;4.00;;
5841;SDS011;2947;52.276;9.946;2023-08-12T11:47:43;5.75;;;3.67;;
5841;SDS011;2947;52.276;9.946;2023-08-12T11:50:10;5.38;;;3.53;;
5841;SDS011;2947;52.276;9.946;2023-08-12T11:52:38;6.60;;;3.40;;
5841;SDS011;2947;52.276;9.946;2023-08-12T11:55:05;5.95;;;3.10;;
5841;SDS011;2947;52.276;9.946;2023-08-12T11:57:32;5.05;;;2.53;;
5841;SDS011;2947;52.276;9.946;2023-08-12T12:00:05;4.43;;;2.72;;
5841;SDS011;2947;52.276;9.946;2023-08-12T12:02:38;6.60;;;2.88;;
5841;SDS011;2947;52.276;9.946;2023-08-12T12:05:12;5.70;;;2.83;;
5841;SDS011;2947;52.276;9.946;2023-08-12T12:07:38;5.70;;;3.33;;
5841;SDS011;2947;52.276;9.946;2023-08-12T12:10:06;6.07;;;3.25;;
5841;SDS011;2947;52.276;9.946;2023-08-12T12:12:35;4.70;;;3.15;;
5841;SDS011;2947;52.276;9.946;2023-08-12T12:15:02;4.20;;;2.67;;
5841;SDS011;2947;52.276;9.946;2023-08-12T12:17:29;15.65;;;3.60;;
5841;SDS011;2947;52.276;9.946;2023-08-12T12:19:59;12.00;;;9.95;;
5841;SDS011;2947;52.276;9.946;2023-08-12T12:22:26;4.30;;;2.40;;
5841;SDS011;2947;52.276;9.946;2023-08-12T12:24:54;5.10;;;3.03;;
5841;SDS011;2947;52.276;9.946;2023-08-12T12:27:19;4.82;;;3.00;;
5841;SDS011;2947;52.276;9.946;2023-08-12T12:29:45;4.70;;;2.40;;
5841;SDS011;2947;52.276;9.946;2023-08-12T12:32:11;4.97;;;2.58;;
5841;SDS011;2947;52.276;9.946;2023-08-12T12:34:37;5.57;;;2.90;;
5841;SDS011;2947;52.276;9.946;2023-08-12T12:37:03;5.90;;;3.28;;
5841;SDS011;2947;52.276;9.946;2023-08-12T12:39:29;5.15;;;2.80;;
5841;SDS011;2947;52.276;9.946;2023-08-12T12:41:56;5.13;;;2.53;;
5841;SDS011;2947;52.276;9.946;2023-08-12T12:44:24;4.18;;;2.80;;
5841;SDS011;2947;52.276;9.946;2023-08-12T12:46:50;3.97;;;2.10;;
5841;SDS011;2947;52.276;9.946;2023-08-12T12:49:16;4.68;;;3.10;;
5841;SDS011;2947;52.276;9.946;2023-08-12T12:51:41;8.25;;;3.10;;
5841;SDS011;2947;52.276;9.946;2023-08-12T12:54:07;5.63;;;2.90;;
5841;SDS011;2947;52.276;9.946;2023-08-12T12:56:33;4.78;;;2.80;;
5841;SDS011;2947;52.276;9.946;2023-08-12T12:58:58;5.45;;;2.70;;
5841;SDS011;2947;52.276;9.946;2023-08-12T13:01:24;3.83;;;2.58;;
5841;SDS011;2947;52.276;9.946;2023-08-12T13:03:50;3.40;;;2.08;;
5841;SDS011;2947;52.276;9.946;2023-08-12T13:06:15;9.15;;;2.38;;
5841;SDS011;2947;52.276;9.946;2023-08-12T13:08:41;4.60;;;2.58;;
5841;SDS011;2947;52.276;9.946;2023-08-12T13:11:07;4.05;;;2.47;;
5841;SDS011;2947;52.276;9.946;2023-08-12T13:13:33;5.40;;;2.42;;
5841;SDS011;2947;52.276;9.946;2023-08-12T13:15:58;3.55;;;2.47;;
5841;SDS011;2947;52.276;9.946;2023-08-12T13:18:24;5.75;;;3.35;;
5841;SDS011;2947;52.276;9.946;2023-08-12T13:20:50;4.32;;;2.85;;
5841;SDS011;2947;52.276;9.946;2023-08-12T13:23:15;5.07;;;2.85;;
5841;SDS011;2947;52.276;9.946;2023-08-12T13:25:41;2.90;;;1.80;;
5841;SDS011;2947;52.276;9.946;2023-08-12T13:28:07;11.98;;;2.10;;
5841;SDS011;2947;52.276;9.946;2023-08-12T13:30:33;3.15;;;1.65;;
5841;SDS011;2947;52.276;9.946;2023-08-12T13:32:59;4.45;;;1.75;;
5841;SDS011;2947;52.276;9.946;2023-08-12T13:35:24;4.32;;;1.67;;
5841;SDS011;2947;52.276;9.946;2023-08-12T13:37:50;3.47;;;1.77;;
5841;SDS011;2947;52.276;9.946;2023-08-12T13:40:16;3.65;;;1.80;;
5841;SDS011;2947;52.276;9.946;2023-08-12T13:42:42;4.28;;;1.98;;
5841;SDS011;2947;52.276;9.946;2023-08-12T13:45:09;4.40;;;1.67;;
5841;SDS011;2947;52.276;9.946;2023-08-12T13:47:36;4.10;;;1.98;;
5841;SDS011;2947;52.276;9.946;2023-08-12T13:50:02;5.15;;;2.03;;
5841;SDS011;2947;52.276;9.946;2023-08-12T13:52:28;4.25;;;1.88;;
5841;SDS011;2947;52.276;9.946;2023-08-12T13:54:54;3.15;;;1.50;;
5841;SDS011;2947;52.276;9.946;2023-08-12T13:57:20;5.93;;;1.90;;
5841;SDS011;2947;52.276;9.946;2023-08-12T13:59:45;3.42;;;1.83;;
5841;SDS011;2947;52.276;9.946;2023-08-12T14:02:12;2.95;;;1.70;;
5841;SDS011;2947;52.276;9.946;2023-08-12T14:04:38;3.15;;;1.45;;
5841;SDS011;2947;52.276;9.946;2023-08-12T14:07:04;3.17;;;1.67;;
5841;SDS011;2947;52.276;9.946;2023-08-12T14:09:30;4.20;;;2.10;;
5841;SDS011;2947;52.276;9.946;2023-08-12T14:11:56;4.88;;;1.38;;
5841;SDS011;2947;52.276;9.946;2023-08-12T14:14:23;4.25;;;1.70;;
5841;SDS011;2947;52.276;9.946;2023-08-12T14:16:52;4.20;;;1.98;;
5841;SDS011;2947;52.276;9.946;2023-08-12T14:19:19;6.80;;;2.20;;
5841;SDS011;2947;52.276;9.946;2023-08-12T14:21:45;9.10;;;2.58;;
5841;SDS011;2947;52.276;9.946;2023-08-12T14:24:10;3.42;;;1.63;;
5841;SDS011;2947;52.276;9.946;2023-08-12T14:26:38;8.68;;;1.98;;
5841;SDS011;2947;52.276;9.946;2023-08-12T14:29:05;3.10;;;1.77;;
5841;SDS011;2947;52.276;9.946;2023-08-12T14:31:31;3.28;;;1.50;;
5841;SDS011;2947;52.276;9.946;2023-08-12T14:33:58;2.72;;;1.33;;
5841;SDS011;2947;52.276;9.946;2023-08-12T14:36:24;2.60;;;1.42;;
5841;SDS011;2947;52.276;9.946;2023-08-12T14:38:50;4.38;;;1.60;;
5841;SDS011;2947;52.276;9.946;2023-08-12T14:41:16;2.92;;;1.40;;
5841;SDS011;2947;52.276;9.946;2023-08-12T14:43:42;2.63;;;1.17;;
5841;SDS011;2947;52.276;9.946;2023-08-12T14:46:08;2.53;;;1.40;;
5841;SDS011;2947;52.276;9.946;2023-08-12T14:48:33;4.47;;;1.10;;
5841;SDS011;2947;52.276;9.946;2023-08-12T14:50:59;3.58;;;1.08;;
5841;SDS011;2947;52.276;9.946;2023-08-12T14:53:25;2.28;;;1.20;;
5841;SDS011;2947;52.276;9.946;2023-08-12T14:55:51;2.70;;;1.25;;
5841;SDS011;2947;52.276;9.946;2023-08-12T14:58:17;3.17;;;1.08;;
5841;SDS011;2947;52.276;9.946;2023-08-12T15:00:42;5.28;;;1.50;;
5841;SDS011;2947;52.276;9.946;2023-08-12T15:03:09;2.97;;;1.27;;
5841;SDS011;2947;52.276;9.946;2023-08-12T15:05:36;3.42;;;1.25;;
5841;SDS011;2947;52.276;9.946;2023-08-12T15:08:02;2.65;;;1.27;;
5841;SDS011;2947;52.276;9.946;2023-08-12T15:10:29;5.20;;;1.20;;
5841;SDS011;2947;52.276;9.946;2023-08-12T15:12:54;6.03;;;1.20;;
5841;SDS011;2947;52.276;9.946;2023-08-12T15:15:20;3.55;;;1.30;;